Time;durP1;ratioP1;P1;durP2;ratioP2;P2;SDS_P1;SDS_P2;PMS_P1;PMS_P2;Temp;Humidity;BMP_temperature;BMP_pressure;BME280_temperature;BME280_humidity;BME280_pressure;Samples;Min_cycle;Max_cycle;Signal;HPM_P1;HPM_P2
2022/11/26 00:00:13;;;;;;;;;;;;;;;7.31;67.56;100094.63;347997;28;1299;-77
2022/11/26 00:00:24;;;;;;;;;;;;;;;7.31;67.23;100089.41;344925;28;1461;-77
2022/11/26 00:00:34;;;;;;;;;;;;;;;7.32;67.71;100093.72;346523;28;1333;-76
2022/11/26 00:00:45;;;;;;;;;;;;;;;7.32;67.13;100098.94;347886;28;1218;-76
2022/11/26 00:00:55;;;;;;;;;;;;;;;7.31;67.77;100092.00;347797;28;899;-76
2022/11/26 00:01:15;;;;;;;;;;;;;;;7.31;67.52;100089.41;346822;28;1173;-76
2022/11/26 00:01:26;;;;;;;;;;;;;;;7.28;67.29;100090.31;346797;28;1472;-76
2022/11/26 00:01:37;;;;;;;;;;;;;;;7.30;67.60;100100.72;348123;28;1340;-76
2022/11/26 00:01:47;;;;;;;;;;;;;;;7.30;67.25;100092.91;347814;28;1460;-76
2022/11/26 00:01:58;;;;;;;;;;;;;;;7.29;67.49;100096.38;346717;28;1223;-76
2022/11/26 00:02:19;;;;;;;;;;;;;;;7.27;67.11;100092.94;342766;28;1529;-76
2022/11/26 00:02:29;;;;;;;;;;;;;;;7.26;67.39;100091.25;347735;28;1227;-76
2022/11/26 00:02:40;;;;;;;;;;;;;;;7.26;67.66;100086.03;347752;28;1180;-76
2022/11/26 00:02:50;;;;;;;;;;;;;;;7.26;67.31;100096.44;343499;28;1914;-76
2022/11/26 00:03:00;;;;;;;;;;;;;;;7.26;67.84;100096.44;342660;28;958;-77
2022/11/26 00:03:11;;;;;;;;;;;;;;;7.26;67.62;100096.44;343145;28;1195;-76
2022/11/26 00:03:21;;;;;;;;;;;;;;;7.25;67.79;100094.72;341361;28;1290;-76
2022/11/26 00:03:31;;;;;;;;;;;;;;;7.24;67.90;100093.88;342548;28;902;-76
2022/11/26 00:03:41;;;;;;;;;;;;;;;7.24;67.69;100095.63;342552;28;1103;-76
2022/11/26 00:03:52;;;;;;;;;;;;;;;7.24;67.61;100087.81;341399;28;1956;-76
2022/11/26 00:04:02;;;;;;;;;;;;;;;7.24;67.88;100093.00;341181;29;1317;-76
2022/11/26 00:04:12;;;;;;;;;;;;;;;7.26;67.66;100096.44;339685;29;1591;-76
2022/11/26 00:04:23;;;;;;;;;;;;;;;7.25;67.98;100094.72;336828;29;1316;-76
2022/11/26 00:04:33;;;;;;;;;;;;;;;7.26;67.30;100099.06;340004;29;1046;-75
2022/11/26 00:04:43;;;;;;;;;;;;;;;7.25;67.77;100094.72;338255;29;1670;-76
2022/11/26 00:04:54;;;;;;;;;;;;;;;7.24;67.28;100093.88;339383;29;1823;-78
2022/11/26 00:05:04;;;;;;;;;;;;;;;7.24;67.85;100095.63;339810;29;1199;-77
2022/11/26 00:05:15;;;;;;;;;;;;;;;7.22;67.77;100093.03;335951;29;945;-77
2022/11/26 00:05:26;;;;;;;;;;;;;;;7.23;67.47;100096.50;334544;29;1229;-77
2022/11/26 00:05:38;;;;;;;;;;;;;;;7.23;67.81;100097.38;335451;29;1373;-78
2022/11/26 00:05:48;;;;;;;;;;;;;;;7.22;67.88;100089.59;334566;29;1495;-77
2022/11/26 00:05:59;;;;;;;;;;;;;;;7.23;67.50;100096.50;333814;29;2441;-77
2022/11/26 00:06:29;;;;;;;;;;;;;;;7.22;67.59;100094.78;331605;29;2125;-77
2022/11/26 00:06:40;;;;;;;;;;;;;;;7.22;67.87;100095.66;327101;29;2596;-77
2022/11/26 00:06:50;;;;;;;;;;;;;;;7.23;67.88;100093.91;322783;30;5034;-77
2022/11/26 00:07:00;;;;;;;;;;;;;;;7.21;67.73;100093.94;322190;30;3463;-77
2022/11/26 00:07:11;;;;;;;;;;;;;;;7.22;67.92;100095.66;324454;30;2511;-77
2022/11/26 00:07:24;;;;;;;;;;;;;;;7.22;68.10;100095.66;326452;30;1847;-77
2022/11/26 00:07:34;;;;;;;;;;;;;;;7.21;67.56;100093.94;323204;30;3430;-77
2022/11/26 00:07:47;;;;;;;;;;;;;;;7.21;67.58;100088.72;321179;30;1250;-77
2022/11/26 00:07:58;;;;;;;;;;;;;;;7.20;67.64;100087.00;324865;30;1944;-77
2022/11/26 00:08:18;;;;;;;;;;;;;;;7.20;67.56;100091.34;323131;30;2375;-77
2022/11/26 00:08:29;;;;;;;;;;;;;;;7.20;67.64;100089.63;323800;30;2606;-77
2022/11/26 00:08:40;;;;;;;;;;;;;;;7.21;67.95;100095.69;321038;30;2997;-77
2022/11/26 00:08:50;;;;;;;;;;;;;;;7.20;68.12;100091.34;317742;31;3152;-77
2022/11/26 00:09:00;;;;;;;;;;;;;;;7.21;67.66;100095.69;316820;31;1208;-77
2022/11/26 00:09:12;;;;;;;;;;;;;;;7.21;67.60;100090.47;318604;30;3138;-77
2022/11/26 00:09:24;;;;;;;;;;;;;;;7.20;67.65;100092.22;318915;30;2857;-77
2022/11/26 00:09:34;;;;;;;;;;;;;;;7.19;67.93;100090.50;317853;31;899;-77
2022/11/26 00:09:44;;;;;;;;;;;;;;;7.18;67.83;100103.53;318339;31;2228;-76
2022/11/26 00:09:54;;;;;;;;;;;;;;;7.17;67.68;100104.44;314995;31;1825;-76
2022/11/26 00:10:07;;;;;;;;;;;;;;;7.16;67.60;100098.38;312577;31;2496;-76
2022/11/26 00:10:19;;;;;;;;;;;;;;;7.16;67.51;100089.69;310882;31;1325;-76
2022/11/26 00:10:31;;;;;;;;;;;;;;;7.15;67.53;100103.59;310903;31;1637;-76
2022/11/26 00:10:42;;;;;;;;;;;;;;;7.15;67.98;100095.78;307342;31;3793;-76
2022/11/26 00:10:52;;;;;;;;;;;;;;;7.14;67.93;100096.69;304670;32;4483;-76
2022/11/26 00:11:02;;;;;;;;;;;;;;;7.13;67.65;100100.16;303775;32;1016;-77
2022/11/26 00:11:12;;;;;;;;;;;;;;;7.13;67.81;100094.97;307059;32;4844;-77
2022/11/26 00:11:23;;;;;;;;;;;;;;;7.13;67.84;100094.97;305143;32;4249;-76
2022/11/26 00:11:33;;;;;;;;;;;;;;;7.13;67.91;100098.41;303535;32;1495;-76
2022/11/26 00:11:43;;;;;;;;;;;;;;;7.10;67.99;100103.69;305890;32;3953;-76
2022/11/26 00:11:53;;;;;;;;;;;;;;;7.08;67.72;100094.19;302595;32;3310;-76
2022/11/26 00:12:20;;;;;;;;;;;;;;;7.08;68.03;100097.66;299305;33;1474;-76
2022/11/26 00:12:31;;;;;;;;;;;;;;;7.10;68.07;100102.81;302561;32;896;-77
2022/11/26 00:12:41;;;;;;;;;;;;;;;7.10;67.82;100098.47;296658;32;5161;-77
2022/11/26 00:12:51;;;;;;;;;;;;;;;7.10;67.98;100103.69;295661;33;5474;-77
2022/11/26 00:13:01;;;;;;;;;;;;;;;7.10;67.77;100095.88;297323;33;1390;-77
2022/11/26 00:13:15;;;;;;;;;;;;;;;7.11;67.72;100101.94;292614;33;6409;-77
2022/11/26 00:13:26;;;;;;;;;;;;;;;7.12;67.40;100098.44;293430;33;7794;-77
2022/11/26 00:13:37;;;;;;;;;;;;;;;7.12;67.85;100093.25;291745;33;5823;-77
2022/11/26 00:13:47;;;;;;;;;;;;;;;7.13;67.63;100095.81;291287;34;1590;-77
2022/11/26 00:13:57;;;;;;;;;;;;;;;7.13;67.26;100098.41;287278;33;6056;-77
2022/11/26 00:14:13;;;;;;;;;;;;;;;7.12;67.17;100095.84;287683;34;4874;-77
2022/11/26 00:14:24;;;;;;;;;;;;;;;7.12;67.23;100086.28;285737;34;5172;-77
2022/11/26 00:14:35;;;;;;;;;;;;;;;7.14;67.01;100096.69;284858;34;1225;-77
2022/11/26 00:14:46;;;;;;;;;;;;;;;7.15;66.90;100103.59;281301;35;1515;-77
2022/11/26 00:14:56;;;;;;;;;;;;;;;7.12;67.28;100101.06;277785;35;8143;-77
2022/11/26 00:15:25;;;;;;;;;;;;;;;7.12;66.85;100103.66;274854;35;7994;-77
2022/11/26 00:17:19;;;;;;;;;;;;;;;7.13;66.78;100105.38;2500439;27;19937;-76
2022/11/26 00:17:29;;;;;;;;;;;;;;;7.12;66.84;100103.66;356248;27;1210;-76
2022/11/26 00:17:40;;;;;;;;;;;;;;;7.12;67.27;100101.06;353616;27;1944;-76
2022/11/26 00:17:50;;;;;;;;;;;;;;;7.12;67.28;100103.66;352034;28;1427;-76
2022/11/26 00:18:00;;;;;;;;;;;;;;;7.11;67.44;100108.00;350756;28;859;-76
2022/11/26 00:18:11;;;;;;;;;;;;;;;7.09;66.92;100103.72;350634;28;1286;-76
2022/11/26 00:18:28;;;;;;;;;;;;;;;7.08;67.37;100107.19;350971;28;1589;-76
2022/11/26 00:18:38;;;;;;;;;;;;;;;7.07;67.34;100102.88;352114;28;911;-76
2022/11/26 00:18:49;;;;;;;;;;;;;;;7.08;66.98;100099.41;352811;28;1505;-76
2022/11/26 00:18:59;;;;;;;;;;;;;;;7.09;67.69;100106.31;346360;28;1227;-76
2022/11/26 00:19:09;;;;;;;;;;;;;;;7.09;67.39;100108.91;345260;28;1554;-76
2022/11/26 00:19:19;;;;;;;;;;;;;;;7.07;67.38;100095.94;346577;28;1078;-77
2022/11/26 00:19:29;;;;;;;;;;;;;;;7.08;67.17;100102.00;350001;28;1463;-77
2022/11/26 00:19:40;;;;;;;;;;;;;;;7.07;67.18;100105.47;350824;28;1282;-77
2022/11/26 00:19:50;;;;;;;;;;;;;;;7.09;67.09;100106.31;350691;28;1178;-77
2022/11/26 00:20:00;;;;;;;;;;;;;;;7.08;66.96;100107.19;346546;28;1555;-77
2022/11/26 00:20:11;;;;;;;;;;;;;;;7.07;67.49;100100.28;349330;28;951;-77
2022/11/26 00:20:22;;;;;;;;;;;;;;;7.07;66.97;100108.09;350559;28;1669;-77
2022/11/26 00:20:32;;;;;;;;;;;;;;;7.07;67.02;100105.47;349351;28;1372;-78
2022/11/26 00:20:42;;;;;;;;;;;;;;;7.07;67.18;100105.47;349699;28;793;-75
2022/11/26 00:20:53;;;;;;;;;;;;;;;7.06;67.35;100104.63;350795;28;951;-77
2022/11/26 00:21:03;;;;;;;;;;;;;;;7.06;67.15;100104.63;349915;28;1528;-77
2022/11/26 00:21:19;;;;;;;;;;;;;;;7.05;67.35;100107.25;351219;28;1365;-76
2022/11/26 00:21:29;;;;;;;;;;;;;;;7.06;67.54;100098.56;349316;28;888;-77
2022/11/26 00:21:39;;;;;;;;;;;;;;;7.07;67.12;100101.13;347861;28;1655;-77
2022/11/26 00:21:49;;;;;;;;;;;;;;;7.08;67.46;100107.19;346680;28;1199;-76
2022/11/26 00:21:59;;;;;;;;;;;;;;;7.08;67.35;100104.59;345158;28;1570;-76
2022/11/26 00:22:18;;;;;;;;;;;;;;;7.09;67.04;100108.91;345364;28;1208;-76
2022/11/26 00:22:29;;;;;;;;;;;;;;;7.09;67.20;100101.97;346543;28;874;-76
2022/11/26 00:22:40;;;;;;;;;;;;;;;7.08;66.76;100110.66;346513;28;1316;-79
2022/11/26 00:22:51;;;;;;;;;;;;;;;7.08;67.22;100112.41;346701;28;848;-76
2022/11/26 00:23:03;;;;;;;;;;;;;;;7.09;66.78;100103.72;347671;28;1619;-76
2022/11/26 00:23:19;;;;;;;;;;;;;;;7.09;66.76;100108.91;345701;28;1439;-76
2022/11/26 00:23:30;;;;;;;;;;;;;;;7.08;67.47;100109.81;346966;28;1225;-76
2022/11/26 00:23:40;;;;;;;;;;;;;;;7.09;66.91;100109.78;343191;28;1346;-75
2022/11/26 00:23:50;;;;;;;;;;;;;;;7.08;67.50;100107.19;341128;29;1947;-75
2022/11/26 00:24:01;;;;;;;;;;;;;;;7.08;67.39;100107.19;342660;28;1299;-76
2022/11/26 00:24:41;;;;;;;;;;;;;;;7.08;67.07;100108.06;345528;28;1486;-76
2022/11/26 00:24:51;;;;;;;;;;;;;;;7.08;66.77;100112.41;343789;28;1404;-76
2022/11/26 00:25:01;;;;;;;;;;;;;;;7.09;67.17;100109.78;342051;28;1323;-76
2022/11/26 00:25:12;;;;;;;;;;;;;;;7.09;67.39;100111.53;338183;29;4063;-75
2022/11/26 00:25:23;;;;;;;;;;;;;;;7.08;67.42;100107.19;335630;29;3179;-75
2022/11/26 00:25:40;;;;;;;;;;;;;;;7.08;66.90;100115.00;334798;29;862;-75
2022/11/26 00:26:02;;;;;;;;;;;;;;;7.06;67.10;100108.97;333984;29;3315;-76
2022/11/26 00:26:14;;;;;;;;;;;;;;;7.05;67.12;100112.47;333197;29;1411;-76
2022/11/26 00:26:24;;;;;;;;;;;;;;;7.05;66.56;100113.31;332204;29;1281;-76
2022/11/26 00:26:34;;;;;;;;;;;;;;;7.07;66.55;100113.28;334650;29;1221;-76
2022/11/26 00:26:44;;;;;;;;;;;;;;;7.07;66.92;100115.91;333318;29;1232;-76
2022/11/26 00:26:55;;;;;;;;;;;;;;;7.08;66.69;100112.41;335865;29;1201;-76
2022/11/26 00:27:07;;;;;;;;;;;;;;;7.07;66.38;100116.75;335981;29;952;-76
2022/11/26 00:27:18;;;;;;;;;;;;;;;7.06;66.46;100114.19;337010;29;1458;-76
2022/11/26 00:27:28;;;;;;;;;;;;;;;7.05;66.52;100109.84;333729;29;1933;-76
2022/11/26 00:27:38;;;;;;;;;;;;;;;7.04;67.06;100111.59;329414;29;1902;-75
2022/11/26 00:27:49;;;;;;;;;;;;;;;7.06;66.59;100114.19;328600;30;864;-75
2022/11/26 00:27:59;;;;;;;;;;;;;;;7.05;66.80;100109.84;331607;29;2150;-75
2022/11/26 00:28:29;;;;;;;;;;;;;;;7.05;66.62;100102.06;332042;29;2122;-76
2022/11/26 00:28:40;;;;;;;;;;;;;;;7.06;66.74;100108.97;328183;29;1261;-75
2022/11/26 00:28:51;;;;;;;;;;;;;;;7.04;66.53;100110.75;328121;30;1956;-76
2022/11/26 00:29:01;;;;;;;;;;;;;;;7.03;66.85;100109.88;329957;29;1241;-76
2022/11/26 00:29:11;;;;;;;;;;;;;;;7.03;66.33;100111.63;329026;30;1926;-77
2022/11/26 00:29:21;;;;;;;;;;;;;;;7.00;66.94;100110.78;327234;30;1163;-77
2022/11/26 00:29:32;;;;;;;;;;;;;;;7.01;67.03;100104.72;325782;30;1998;-75
2022/11/26 00:29:42;;;;;;;;;;;;;;;7.03;66.74;100106.44;326956;29;2461;-75
2022/11/26 00:29:52;;;;;;;;;;;;;;;7.03;66.98;100103.81;328533;30;1030;-76
2022/11/26 00:30:16;;;;;;;;;;;;;;;7.03;66.63;100104.69;322001;30;2673;-77
2022/11/26 00:30:26;;;;;;;;;;;;;;;7.04;66.58;100106.41;323353;30;2624;-76
2022/11/26 00:30:36;;;;;;;;;;;;;;;7.06;66.82;100108.97;322498;30;1220;-78
2022/11/26 00:30:46;;;;;;;;;;;;;;;7.06;66.68;100108.97;324469;30;1792;-75
2022/11/26 00:30:58;;;;;;;;;;;;;;;7.06;66.71;100103.78;323857;30;1284;-76
2022/11/26 00:31:12;;;;;;;;;;;;;;;7.06;66.40;100101.16;323284;30;2085;-76
2022/11/26 00:31:22;;;;;;;;;;;;;;;7.05;66.85;100102.06;322504;30;1342;-75
2022/11/26 00:31:32;;;;;;;;;;;;;;;7.04;66.86;100102.94;317709;30;2738;-75
2022/11/26 00:31:42;;;;;;;;;;;;;;;7.02;66.81;100100.34;317584;30;2969;-75
2022/11/26 00:31:53;;;;;;;;;;;;;;;7.04;66.33;100108.13;316533;31;1221;-77
2022/11/26 00:32:04;;;;;;;;;;;;;;;7.04;66.68;100102.94;316165;31;3300;-77
2022/11/26 00:32:15;;;;;;;;;;;;;;;7.05;66.76;100102.06;316405;30;3453;-76
2022/11/26 00:32:25;;;;;;;;;;;;;;;7.05;66.44;100102.06;314842;31;3133;-76
2022/11/26 00:32:35;;;;;;;;;;;;;;;7.04;66.59;100100.34;313229;31;1735;-76
2022/11/26 00:32:46;;;;;;;;;;;;;;;7.04;66.31;100095.13;314087;31;2933;-76
2022/11/26 00:32:56;;;;;;;;;;;;;;;7.04;66.30;100105.53;313154;31;2381;-76
2022/11/26 00:33:06;;;;;;;;;;;;;;;7.05;66.26;100096.84;312131;31;1373;-76
2022/11/26 00:33:17;;;;;;;;;;;;;;;7.05;66.60;100096.84;311679;31;2150;-76
2022/11/26 00:33:27;;;;;;;;;;;;;;;7.03;66.75;100102.06;310892;31;2656;-76
2022/11/26 00:33:37;;;;;;;;;;;;;;;7.04;66.84;100100.34;309946;31;1712;-76
2022/11/26 00:33:48;;;;;;;;;;;;;;;7.05;66.66;100102.06;306824;31;4017;-76
2022/11/26 00:33:58;;;;;;;;;;;;;;;7.04;66.73;100100.34;304465;32;4491;-76
2022/11/26 00:34:08;;;;;;;;;;;;;;;7.05;66.83;100102.06;302312;32;2989;-76
2022/11/26 00:34:18;;;;;;;;;;;;;;;7.03;66.59;100098.63;299806;32;954;-76
2022/11/26 00:34:28;;;;;;;;;;;;;;;7.03;66.36;100098.63;296191;32;5939;-76
2022/11/26 00:34:39;;;;;;;;;;;;;;;7.03;66.78;100106.44;295879;32;6415;-76
2022/11/26 00:34:49;;;;;;;;;;;;;;;6.98;66.32;100104.75;298335;33;1343;-76
2022/11/26 00:34:59;;;;;;;;;;;;;;;6.97;66.79;100102.19;295534;33;3905;-76
2022/11/26 00:35:10;;;;;;;;;;;;;;;6.96;66.87;100103.06;294978;33;3017;-76
2022/11/26 00:35:21;;;;;;;;;;;;;;;6.95;66.41;100107.41;295565;33;965;-77
2022/11/26 00:35:31;;;;;;;;;;;;;;;6.95;66.53;100101.34;295647;33;3174;-76
2022/11/26 00:35:42;;;;;;;;;;;;;;;6.95;66.79;100104.81;295050;33;4357;-76
2022/11/26 00:35:57;;;;;;;;;;;;;;;6.96;66.91;100098.72;297485;33;818;-76
2022/11/26 00:36:17;;;;;;;;;;;;;;;6.97;66.97;100099.59;296070;33;2358;-76
2022/11/26 00:36:30;;;;;;;;;;;;;;;6.98;66.64;100106.50;293510;33;6843;-77
2022/11/26 00:36:40;;;;;;;;;;;;;;;6.96;66.40;100103.06;292917;33;6743;-77
2022/11/26 00:36:51;;;;;;;;;;;;;;;6.93;66.38;100103.16;295440;33;1095;-76
2022/11/26 00:37:01;;;;;;;;;;;;;;;6.91;66.40;100100.59;291529;33;5983;-76
2022/11/26 00:37:21;;;;;;;;;;;;;;;6.91;66.63;100103.19;291433;33;5411;-76
2022/11/26 00:37:34;;;;;;;;;;;;;;;6.94;66.36;100100.50;286190;34;4279;-76
2022/11/26 00:37:44;;;;;;;;;;;;;;;6.95;66.38;100101.34;285770;34;6127;-76
2022/11/26 00:37:55;;;;;;;;;;;;;;;6.95;66.39;100102.22;285526;34;5922;-76
2022/11/26 00:38:05;;;;;;;;;;;;;;;6.96;66.26;100097.88;284534;34;810;-76
2022/11/26 00:38:16;;;;;;;;;;;;;;;6.96;66.13;100103.06;280479;34;7270;-76
2022/11/26 00:38:27;;;;;;;;;;;;;;;6.95;66.32;100102.22;279480;34;8567;-76
2022/11/26 00:38:37;;;;;;;;;;;;;;;6.94;66.51;100095.28;277691;35;1364;-76
2022/11/26 00:38:51;;;;;;;;;;;;;;;6.96;66.27;100106.53;274229;35;9161;-76
2022/11/26 00:39:04;;;;;;;;;;;;;;;6.96;66.24;100101.34;273461;35;10122;-76
2022/11/26 00:39:16;;;;;;;;;;;;;;;6.97;66.65;100099.59;271074;36;8372;-76
2022/11/26 00:39:26;;;;;;;;;;;;;;;6.96;66.42;100103.94;270352;35;8256;-76
2022/11/26 00:39:36;;;;;;;;;;;;;;;6.97;66.31;100099.59;275162;36;864;-76
2022/11/26 00:41:20;;;;;;;;;;;;;;;6.98;66.23;100101.31;2503789;27;20250;-75
2022/11/26 00:41:31;;;;;;;;;;;;;;;6.97;66.25;100105.66;353690;28;883;-77
2022/11/26 00:41:42;;;;;;;;;;;;;;;6.96;66.61;100098.72;351750;28;904;-77
2022/11/26 00:41:52;;;;;;;;;;;;;;;6.98;66.56;100101.31;349243;28;1310;-77
2022/11/26 00:42:02;;;;;;;;;;;;;;;6.96;66.37;100098.72;349325;28;1347;-77
2022/11/26 00:42:12;;;;;;;;;;;;;;;6.96;66.09;100093.53;350608;28;1393;-77
2022/11/26 00:42:23;;;;;;;;;;;;;;;6.96;66.38;100103.94;349288;28;1216;-76
2022/11/26 00:42:33;;;;;;;;;;;;;;;6.97;66.60;100100.44;350752;28;832;-76
2022/11/26 00:42:43;;;;;;;;;;;;;;;6.99;66.14;100098.66;349184;28;1396;-76
2022/11/26 00:42:53;;;;;;;;;;;;;;;6.99;66.55;100100.41;349276;28;1208;-76
2022/11/26 00:43:04;;;;;;;;;;;;;;;6.99;65.95;100103.88;349363;28;942;-77
2022/11/26 00:43:15;;;;;;;;;;;;;;;6.98;66.38;100102.16;346450;28;1361;-77
2022/11/26 00:43:25;;;;;;;;;;;;;;;6.99;66.51;100101.28;348431;28;1166;-77
2022/11/26 00:43:35;;;;;;;;;;;;;;;6.98;66.36;100102.16;348849;28;5249;-76
2022/11/26 00:43:45;;;;;;;;;;;;;;;7.00;66.65;100095.19;349626;28;3209;-77
2022/11/26 00:43:56;;;;;;;;;;;;;;;7.01;66.14;100103.84;348959;28;1932;-77
2022/11/26 00:44:20;;;;;;;;;;;;;;;7.01;66.06;100109.06;347893;28;1821;-77
2022/11/26 00:44:30;;;;;;;;;;;;;;;7.00;66.05;100105.59;348694;28;1514;-76
2022/11/26 00:44:40;;;;;;;;;;;;;;;7.01;66.15;100102.09;348841;28;937;-77
2022/11/26 00:44:50;;;;;;;;;;;;;;;7.00;65.83;100100.38;349110;28;1312;-77
2022/11/26 00:45:00;;;;;;;;;;;;;;;7.01;66.33;100101.25;349232;28;998;-77
2022/11/26 00:45:14;;;;;;;;;;;;;;;6.99;66.40;100106.47;350903;28;978;-77
2022/11/26 00:45:25;;;;;;;;;;;;;;;7.00;65.84;100104.72;351543;28;1603;-77
2022/11/26 00:45:36;;;;;;;;;;;;;;;7.00;65.95;100107.34;349060;28;897;-77
2022/11/26 00:45:49;;;;;;;;;;;;;;;7.00;65.84;100104.72;347911;28;1329;-77
2022/11/26 00:45:59;;;;;;;;;;;;;;;7.03;66.23;100103.81;347636;28;1292;-77
2022/11/26 00:46:11;;;;;;;;;;;;;;;7.03;66.16;100103.81;345646;28;1325;-77
2022/11/26 00:46:21;;;;;;;;;;;;;;;7.01;66.29;100107.31;343861;28;1338;-77
2022/11/26 00:46:32;;;;;;;;;;;;;;;7.02;65.84;100102.97;345208;28;1188;-77
2022/11/26 00:46:42;;;;;;;;;;;;;;;7.01;66.09;100107.31;345232;28;865;-77
2022/11/26 00:46:52;;;;;;;;;;;;;;;7.02;66.22;100108.16;344690;28;1295;-77
2022/11/26 00:47:02;;;;;;;;;;;;;;;7.01;65.95;100107.31;345486;28;1518;-77
2022/11/26 00:47:13;;;;;;;;;;;;;;;7.02;65.73;100105.56;342440;28;1282;-77
2022/11/26 00:47:23;;;;;;;;;;;;;;;7.01;66.48;100102.09;343005;28;932;-77
2022/11/26 00:47:33;;;;;;;;;;;;;;;7.04;66.18;100110.75;342581;28;1439;-77
2022/11/26 00:47:43;;;;;;;;;;;;;;;7.03;66.28;100103.81;342695;28;5450;-77
2022/11/26 00:47:53;;;;;;;;;;;;;;;7.03;66.06;100103.81;344294;28;3414;-76
2022/11/26 00:48:04;;;;;;;;;;;;;;;7.03;66.06;100103.81;343842;28;901;-77
2022/11/26 00:48:15;;;;;;;;;;;;;;;7.04;66.37;100102.94;342329;28;2077;-77
2022/11/26 00:48:25;;;;;;;;;;;;;;;7.04;65.77;100108.13;339690;29;3513;-77
2022/11/26 00:48:35;;;;;;;;;;;;;;;7.05;65.84;100107.25;341266;29;1102;-77
2022/11/26 00:48:45;;;;;;;;;;;;;;;7.04;65.85;100105.53;339778;29;1229;-77
2022/11/26 00:48:55;;;;;;;;;;;;;;;7.05;65.75;100108.13;337399;29;1642;-77
2022/11/26 00:49:06;;;;;;;;;;;;;;;7.05;66.21;100107.25;337246;28;1265;-77
2022/11/26 00:49:16;;;;;;;;;;;;;;;7.06;66.09;100108.97;341232;29;1311;-77
2022/11/26 00:49:27;;;;;;;;;;;;;;;7.05;66.19;100112.47;342419;28;1360;-77
2022/11/26 00:49:37;;;;;;;;;;;;;;;7.06;66.28;100111.56;340894;28;1340;-77
2022/11/26 00:49:48;;;;;;;;;;;;;;;7.05;66.26;100107.25;342627;28;1004;-77
2022/11/26 00:49:58;;;;;;;;;;;;;;;7.06;66.17;100108.97;344841;28;1538;-77
2022/11/26 00:50:11;;;;;;;;;;;;;;;7.07;66.02;100110.69;344316;28;1985;-76
2022/11/26 00:50:23;;;;;;;;;;;;;;;7.06;65.94;100111.56;341178;28;1325;-76
2022/11/26 00:50:37;;;;;;;;;;;;;;;7.06;66.25;100106.38;341224;29;877;-76
2022/11/26 00:50:48;;;;;;;;;;;;;;;7.06;65.72;100109.84;338600;29;858;-76
2022/11/26 00:50:58;;;;;;;;;;;;;;;7.07;65.96;100110.69;337099;29;1211;-76
2022/11/26 00:51:22;;;;;;;;;;;;;;;7.07;65.96;100108.09;340154;28;2051;-76
2022/11/26 00:51:32;;;;;;;;;;;;;;;7.07;66.16;100108.09;336016;29;967;-76
2022/11/26 00:51:42;;;;;;;;;;;;;;;7.06;65.64;100101.16;335275;29;1586;-76
2022/11/26 00:51:53;;;;;;;;;;;;;;;7.05;65.85;100110.72;333470;29;1960;-76
2022/11/26 00:52:03;;;;;;;;;;;;;;;7.05;66.15;100108.13;334665;29;1310;-77
2022/11/26 00:52:31;;;;;;;;;;;;;;;7.06;66.17;100114.19;334396;29;2075;-77
2022/11/26 00:52:41;;;;;;;;;;;;;;;7.03;65.93;100115.09;334327;29;890;-76
2022/11/26 00:52:54;;;;;;;;;;;;;;;7.04;65.97;100110.75;334777;29;1185;-76
2022/11/26 00:53:04;;;;;;;;;;;;;;;7.04;65.54;100110.75;333024;29;1835;-76
2022/11/26 00:53:15;;;;;;;;;;;;;;;7.06;65.79;100111.56;331087;29;5609;-76
2022/11/26 00:53:25;;;;;;;;;;;;;;;7.05;65.80;100113.31;329535;29;3399;-77
2022/11/26 00:53:36;;;;;;;;;;;;;;;7.05;66.09;100112.47;328229;29;2332;-77
2022/11/26 00:53:46;;;;;;;;;;;;;;;7.05;65.95;100112.47;327530;30;2835;-76
2022/11/26 00:53:59;;;;;;;;;;;;;;;7.05;65.81;100109.84;327172;30;3466;-76
2022/11/26 00:54:10;;;;;;;;;;;;;;;7.05;66.13;100099.44;324508;30;2675;-76
2022/11/26 00:54:22;;;;;;;;;;;;;;;7.04;66.15;100106.41;324306;29;2749;-76
2022/11/26 00:54:32;;;;;;;;;;;;;;;7.04;66.32;100105.53;326009;30;1131;-76
2022/11/26 00:54:42;;;;;;;;;;;;;;;7.04;66.12;100106.41;325035;30;1768;-75
2022/11/26 00:54:52;;;;;;;;;;;;;;;7.05;65.89;100104.66;328583;30;1347;-76
2022/11/26 00:55:05;;;;;;;;;;;;;;;7.04;66.45;100110.75;329888;29;1582;-78
2022/11/26 00:55:22;;;;;;;;;;;;;;;7.04;65.97;100105.53;324824;30;867;-77
2022/11/26 00:55:33;;;;;;;;;;;;;;;7.03;65.94;100109.03;322478;30;1358;-77
2022/11/26 00:55:45;;;;;;;;;;;;;;;7.03;65.96;100103.81;321923;30;2785;-76
2022/11/26 00:55:55;;;;;;;;;;;;;;;7.02;66.39;100102.97;317532;30;3464;-76
2022/11/26 00:56:07;;;;;;;;;;;;;;;7.02;66.00;100108.16;314740;30;2769;-76
2022/11/26 00:56:18;;;;;;;;;;;;;;;7.01;66.00;100104.72;313254;31;1255;-76
2022/11/26 00:56:28;;;;;;;;;;;;;;;7.04;66.35;100100.34;311463;31;3523;-76
2022/11/26 00:56:38;;;;;;;;;;;;;;;7.04;66.36;100100.34;312249;31;3253;-76
2022/11/26 00:56:49;;;;;;;;;;;;;;;7.05;66.09;100104.66;314436;31;1269;-76
2022/11/26 00:56:59;;;;;;;;;;;;;;;7.04;65.83;100097.72;312202;31;1340;-77
2022/11/26 00:57:09;;;;;;;;;;;;;;;7.04;66.23;100106.41;309860;31;2189;-77
2022/11/26 00:57:20;;;;;;;;;;;;;;;7.04;65.91;100105.53;309677;31;3025;-76
2022/11/26 00:57:30;;;;;;;;;;;;;;;7.05;66.33;100102.06;312237;31;940;-77
2022/11/26 00:57:40;;;;;;;;;;;;;;;7.05;65.85;100100.31;310011;31;4013;-77
2022/11/26 00:57:50;;;;;;;;;;;;;;;7.05;65.94;100102.91;309529;31;4261;-77
2022/11/26 00:58:01;;;;;;;;;;;;;;;7.05;66.18;100096.84;308782;31;1465;-77
2022/11/26 00:58:24;;;;;;;;;;;;;;;7.06;66.51;100098.56;305771;31;4928;-76
2022/11/26 00:58:35;;;;;;;;;;;;;;;7.06;65.92;100103.78;302839;32;4268;-76
2022/11/26 00:58:45;;;;;;;;;;;;;;;7.06;65.88;100098.56;303521;32;1247;-77
2022/11/26 00:58:56;;;;;;;;;;;;;;;7.04;66.18;100101.19;306289;32;4255;-76
2022/11/26 00:59:08;;;;;;;;;;;;;;;7.06;66.37;100093.34;307102;32;3091;-76
2022/11/26 00:59:19;;;;;;;;;;;;;;;7.07;65.86;100100.28;305644;32;892;-76
2022/11/26 00:59:29;;;;;;;;;;;;;;;7.07;66.53;100097.69;304554;32;1405;-76
2022/11/26 00:59:40;;;;;;;;;;;;;;;7.07;66.43;100097.69;300665;32;3830;-77
2022/11/26 00:59:50;;;;;;;;;;;;;;;7.07;65.93;100102.88;298866;32;4858;-77
2022/11/26 01:00:00;;;;;;;;;;;;;;;7.06;66.03;100098.56;300531;32;1229;-76
2022/11/26 01:00:18;;;;;;;;;;;;;;;7.05;66.43;100102.06;299235;32;6239;-76
2022/11/26 01:00:29;;;;;;;;;;;;;;;7.03;66.38;100104.69;298286;32;6209;-76
2022/11/26 01:00:39;;;;;;;;;;;;;;;7.02;66.66;100102.97;295771;33;5890;-76
2022/11/26 01:00:50;;;;;;;;;;;;;;;7.03;66.56;100104.69;294197;33;6134;-75
2022/11/26 01:01:00;;;;;;;;;;;;;;;7.01;66.40;100107.31;291548;34;1555;-76
2022/11/26 01:01:11;;;;;;;;;;;;;;;7.02;66.29;100108.16;290294;33;6470;-76
2022/11/26 01:01:22;;;;;;;;;;;;;;;7.01;66.66;100107.31;289554;33;4558;-76
2022/11/26 01:01:32;;;;;;;;;;;;;;;7.03;66.17;100103.81;290703;34;875;-76
2022/11/26 01:01:43;;;;;;;;;;;;;;;7.02;66.54;100097.75;291189;33;5239;-76
2022/11/26 01:01:53;;;;;;;;;;;;;;;7.02;66.48;100105.56;290091;33;6167;-76
2022/11/26 01:02:03;;;;;;;;;;;;;;;7.01;66.15;100096.91;290593;34;981;-76
2022/11/26 01:02:13;;;;;;;;;;;;;;;7.02;66.70;100100.34;286209;34;7989;-76
2022/11/26 01:02:23;;;;;;;;;;;;;;;7.01;66.30;100098.66;281887;34;9080;-76
2022/11/26 01:02:34;;;;;;;;;;;;;;;7.00;66.63;100104.72;283614;34;3324;-76
2022/11/26 01:02:44;;;;;;;;;;;;;;;7.00;66.26;100100.38;281635;34;9243;-76
2022/11/26 01:02:54;;;;;;;;;;;;;;;7.01;66.77;100107.31;281170;34;9085;-76
2022/11/26 01:03:05;;;;;;;;;;;;;;;7.01;66.42;100106.44;279728;34;7712;-75
2022/11/26 01:03:15;;;;;;;;;;;;;;;7.01;66.35;100106.44;279488;35;854;-76
2022/11/26 01:05:38;;;;;;;;;;;;;;;6.94;66.75;100110.91;2504672;27;19922;-76
2022/11/26 01:05:49;;;;;;;;;;;;;;;6.94;66.62;100110.91;354690;27;1642;-76
2022/11/26 01:05:59;;;;;;;;;;;;;;;6.94;66.85;100112.66;352055;28;1348;-76
2022/11/26 01:06:20;;;;;;;;;;;;;;;6.93;66.78;100105.75;350716;28;1242;-76
2022/11/26 01:06:31;;;;;;;;;;;;;;;6.92;66.41;100107.50;349365;28;959;-76
2022/11/26 01:06:42;;;;;;;;;;;;;;;6.91;66.53;100105.78;346629;28;1036;-76
2022/11/26 01:06:52;;;;;;;;;;;;;;;6.91;66.58;100108.38;349205;28;1308;-77
2022/11/26 01:07:02;;;;;;;;;;;;;;;6.91;67.03;100105.78;350794;28;1362;-76
2022/11/26 01:07:12;;;;;;;;;;;;;;;6.90;66.46;100104.06;350707;28;1053;-77
2022/11/26 01:07:22;;;;;;;;;;;;;;;6.91;66.54;100102.34;349456;28;904;-77
2022/11/26 01:07:33;;;;;;;;;;;;;;;6.91;66.94;100105.78;350006;28;1305;-77